Time;durP1;ratioP1;P1;durP2;ratioP2;P2;SDS_P1;SDS_P2;PMS_P1;PMS_P2;Temp;Humidity;BMP_temperature;BMP_pressure;BME280_temperature;BME280_humidity;BME280_pressure;Samples;Min_cycle;Max_cycle;Signal;HPM_P1;HPM_P2
2021/05/15 00:01:55;;;;;;;4.78;2.08;;;;;;;10.58;87.51;97016.81;4852647;29;20035;-81
2021/05/15 00:04:21;;;;;;;6.90;2.28;;;;;;;10.69;87.93;97021.41;4859222;29;20043;-82
2021/05/15 00:06:46;;;;;;;2.88;1.60;;;;;;;10.65;87.75;97019.91;4866933;29;20080;-81
2021/05/15 00:09:13;;;;;;;2.60;1.88;;;;;;;10.70;88.45;97020.44;4865540;29;20040;-82
2021/05/15 00:11:38;;;;;;;8.35;2.22;;;;;;;10.67;88.67;97021.53;4876444;29;20083;-81
2021/05/15 00:14:04;;;;;;;8.18;2.08;;;;;;;10.62;89.64;97020.13;4866655;29;20064;-81
2021/05/15 00:16:30;;;;;;;5.97;2.03;;;;;;;10.66;90.10;97029.66;4876179;29;20032;-81
2021/05/15 00:18:56;;;;;;;5.45;2.15;;;;;;;10.64;89.92;97020.88;4882681;29;20029;-82
2021/05/15 00:21:21;;;;;;;8.85;2.03;;;;;;;10.56;90.86;97015.19;4881786;29;20095;-82
2021/05/15 00:23:48;;;;;;;4.72;2.28;;;;;;;10.59;90.62;97017.66;4882375;29;20032;-81
2021/05/15 00:26:14;;;;;;;6.60;2.95;;;;;;;10.57;91.00;97024.94;4881790;29;20390;-81
2021/05/15 00:28:41;;;;;;;10.40;5.38;;;;;;;10.54;91.91;97027.84;4866556;29;20028;-80
2021/05/15 00:31:07;;;;;;;13.20;5.18;;;;;;;10.53;91.91;97015.41;4857644;29;20061;-79
2021/05/15 00:33:32;;;;;;;11.02;4.50;;;;;;;10.53;92.71;97023.44;4859537;29;20071;-81
2021/05/15 00:35:58;;;;;;;8.70;4.35;;;;;;;10.53;92.73;97035.00;4866991;29;20049;-80
2021/05/15 00:38:24;;;;;;;7.38;4.30;;;;;;;10.51;91.85;97020.03;4855391;29;20048;-80
2021/05/15 00:40:49;;;;;;;6.30;3.05;;;;;;;10.43;91.82;97022.41;4877265;29;20069;-80
2021/05/15 00:43:15;;;;;;;10.43;3.10;;;;;;;10.38;92.18;97022.69;4882192;29;20040;-79
2021/05/15 00:45:41;;;;;;;5.93;2.90;;;;;;;10.33;92.03;97022.19;4865838;29;20119;-79
2021/05/15 00:48:07;;;;;;;5.53;3.00;;;;;;;10.29;94.17;97032.22;4858738;29;20041;-79
2021/05/15 00:50:33;;;;;;;4.93;2.70;;;;;;;10.25;92.95;97029.84;4848021;29;20044;-80
2021/05/15 00:52:58;;;;;;;3.85;2.38;;;;;;;10.18;92.76;97024.06;4861546;29;20444;-81
2021/05/15 00:55:25;;;;;;;3.90;2.30;;;;;;;10.15;92.28;97018.94;4871984;29;20040;-80
2021/05/15 00:57:53;;;;;;;5.32;1.83;;;;;;;10.22;92.04;97024.72;4853188;29;20032;-81
2021/05/15 01:00:19;;;;;;;3.70;1.77;;;;;;;10.21;92.06;97021.19;4865620;29;20032;-80
2021/05/15 01:02:45;;;;;;;2.92;1.70;;;;;;;10.16;93.27;97022.47;4881527;29;20050;-79
2021/05/15 01:05:11;;;;;;;3.88;1.70;;;;;;;10.20;92.62;97035.53;4857700;29;20040;-81
2021/05/15 01:07:38;;;;;;;3.03;1.98;;;;;;;10.17;93.66;97021.50;4866086;29;20472;-80
2021/05/15 01:10:04;;;;;;;4.45;1.92;;;;;;;10.26;94.18;97029.75;4850648;29;20119;-81
2021/05/15 01:12:30;;;;;;;4.75;2.58;;;;;;;10.21;94.54;97015.84;4847606;29;20036;-81
2021/05/15 01:14:57;;;;;;;6.32;3.25;;;;;;;10.26;93.86;97021.75;4847571;29;20469;-81
2021/05/15 01:17:23;;;;;;;6.22;3.42;;;;;;;10.36;93.01;97026.44;4862629;29;20039;-80
2021/05/15 01:19:48;;;;;;;6.38;3.88;;;;;;;10.42;93.02;97026.03;4855217;29;20025;-81
2021/05/15 01:22:15;;;;;;;7.45;3.90;;;;;;;10.45;93.26;97026.66;4862917;29;20033;-81
2021/05/15 01:24:43;;;;;;;13.20;3.67;;;;;;;10.53;92.46;97031.47;4851280;29;20064;-81
2021/05/15 01:27:10;;;;;;;8.73;4.00;;;;;;;10.53;92.23;97029.66;4881443;29;20037;-81
2021/05/15 01:29:36;;;;;;;6.07;3.22;;;;;;;10.52;91.49;97033.28;4865891;29;20484;-81
2021/05/15 01:32:02;;;;;;;9.48;3.60;;;;;;;10.42;91.50;97021.53;4881441;29;20048;-82
2021/05/15 01:34:28;;;;;;;9.55;3.10;;;;;;;10.37;92.06;97029.00;4880209;29;20036;-80
2021/05/15 01:36:54;;;;;;;7.70;2.67;;;;;;;10.29;92.06;97026.88;4876090;29;20060;-81
2021/05/15 01:39:19;;;;;;;7.70;2.30;;;;;;;10.22;92.44;97028.25;4862988;29;20180;-81
2021/05/15 01:41:45;;;;;;;1.80;1.65;;;;;;;10.20;92.08;97032.84;4880991;29;20059;-81
2021/05/15 01:44:11;;;;;;;3.05;2.10;;;;;;;10.20;92.02;97015.97;4864408;29;20032;-81
2021/05/15 01:46:37;;;;;;;3.35;2.08;;;;;;;10.19;92.11;97012.44;4865807;29;20068;-82
2021/05/15 01:49:04;;;;;;;4.10;2.25;;;;;;;10.29;92.28;97018.00;4866987;29;20041;-82
2021/05/15 01:51:30;;;;;;;7.10;2.33;;;;;;;10.33;92.50;97022.19;4878106;29;20071;-82
2021/05/15 01:53:55;;;;;;;8.50;2.40;;;;;;;10.33;92.87;97017.69;4845578;29;20110;-83
2021/05/15 01:56:25;;;;;;;4.45;2.38;;;;;;;10.30;92.53;97023.22;4878537;29;20416;-79
2021/05/15 01:58:52;;;;;;;2.88;2.08;;;;;;;10.27;92.44;97007.41;4881014;29;20496;-80
2021/05/15 02:01:19;;;;;;;2.70;2.13;;;;;;;10.24;94.12;97002.25;4865451;29;20173;-78
2021/05/15 02:03:45;;;;;;;4.30;2.10;;;;;;;10.31;93.98;97010.72;4862716;29;20079;-80
2021/05/15 02:06:11;;;;;;;2.42;1.90;;;;;;;10.26;94.73;97011.06;4862407;29;20093;-81
2021/05/15 02:08:37;;;;;;;6.13;2.42;;;;;;;10.24;95.21;97007.59;4862480;29;20037;-80
2021/05/15 02:11:03;;;;;;;2.63;2.13;;;;;;;10.28;95.52;97019.81;4867376;29;20038;-81
2021/05/15 02:13:30;;;;;;;4.40;2.60;;;;;;;10.28;96.13;97011.78;4842582;29;20036;-80
2021/05/15 02:15:57;;;;;;;6.65;2.85;;;;;;;10.32;96.30;97020.47;4863746;29;20115;-80
2021/05/15 02:18:23;;;;;;;4.63;2.50;;;;;;;10.31;96.08;97016.06;4864890;29;20116;-79
2021/05/15 02:20:49;;;;;;;5.15;2.53;;;;;;;10.38;96.56;97017.34;4861854;29;20033;-80
2021/05/15 02:23:15;;;;;;;3.72;2.30;;;;;;;10.49;95.73;97022.78;4877127;29;20052;-81
2021/05/15 02:25:41;;;;;;;8.43;2.90;;;;;;;10.47;95.32;97014.03;4850536;29;20111;-81
2021/05/15 02:28:07;;;;;;;8.60;2.88;;;;;;;10.62;95.00;97025.47;4856566;29;20041;-81
2021/05/15 02:30:34;;;;;;;7.43;3.00;;;;;;;10.67;95.59;97028.69;4860351;29;20132;-81
2021/05/15 02:33:00;;;;;;;7.53;3.83;;;;;;;10.64;94.44;97021.72;4871946;29;20037;-81
2021/05/15 02:35:25;;;;;;;11.65;4.00;;;;;;;10.70;93.05;97028.47;4850266;29;20101;-81
2021/05/15 02:37:52;;;;;;;5.35;3.00;;;;;;;10.79;94.09;97036.72;4869164;29;20028;-80
2021/05/15 02:40:18;;;;;;;8.63;3.20;;;;;;;10.81;92.90;97026.75;4877938;29;20062;-81
2021/05/15 02:42:43;;;;;;;8.43;3.45;;;;;;;10.79;92.47;97026.00;4865523;29;20037;-81
2021/05/15 02:45:12;;;;;;;5.75;3.40;;;;;;;10.86;92.43;97037.97;4873200;29;20036;-81
2021/05/15 02:47:37;;;;;;;12.90;3.22;;;;;;;10.90;92.43;97038.59;4850237;29;20617;-80
2021/05/15 02:50:08;;;;;;;8.02;3.42;;;;;;;10.89;92.00;97043.09;4850032;29;20116;-80
2021/05/15 02:52:34;;;;;;;7.30;2.95;;;;;;;10.89;91.56;97031.53;4865381;29;20413;-80
2021/05/15 02:54:59;;;;;;;7.70;3.40;;;;;;;10.85;92.30;97035.41;4849449;29;20061;-80
2021/05/15 02:57:25;;;;;;;8.48;3.22;;;;;;;10.80;92.01;97033.06;4865685;29;20039;-80
2021/05/15 02:59:51;;;;;;;7.88;3.28;;;;;;;10.76;92.66;97031.56;4865444;29;20052;-81
2021/05/15 03:02:16;;;;;;;6.88;3.33;;;;;;;10.71;91.86;97031.03;4849336;29;20085;-81
2021/05/15 03:04:42;;;;;;;11.95;3.50;;;;;;;10.70;92.44;97031.16;4859540;29;20017;-81
2021/05/15 03:07:07;;;;;;;10.15;4.93;;;;;;;10.65;93.03;97038.63;4867955;29;20039;-81
2021/05/15 03:09:33;;;;;;;15.43;6.43;;;;;;;10.64;93.03;97026.25;4891381;29;20048;-81
2021/05/15 03:11:58;;;;;;;18.27;7.13;;;;;;;10.66;92.58;97035.00;4869583;29;20416;-81
2021/05/15 03:14:24;;;;;;;16.60;5.57;;;;;;;10.66;92.22;97032.31;4867330;29;20040;-81
2021/05/15 03:16:50;;;;;;;11.95;5.07;;;;;;;10.64;93.50;97031.59;4899711;29;20044;-81
2021/05/15 03:19:15;;;;;;;10.05;4.93;;;;;;;10.68;93.76;97031.25;4867929;29;20088;-81
2021/05/15 03:21:41;;;;;;;13.90;6.22;;;;;;;10.62;93.56;97022.78;4868038;29;20043;-81
2021/05/15 03:24:07;;;;;;;16.33;5.38;;;;;;;10.57;93.14;97003.56;4854905;29;20041;-81
2021/05/15 03:26:32;;;;;;;9.77;4.45;;;;;;;10.69;92.24;97029.44;4857607;29;20029;-80
2021/05/15 03:28:58;;;;;;;8.80;3.92;;;;;;;10.65;92.52;97033.28;4865173;29;20059;-81
2021/05/15 03:31:23;;;;;;;11.45;4.43;;;;;;;10.61;93.07;97021.09;4848808;29;20048;-80
2021/05/15 03:33:49;;;;;;;9.52;3.88;;;;;;;10.62;93.38;97037.03;4864255;29;20036;-81
2021/05/15 03:36:14;;;;;;;11.48;4.10;;;;;;;10.64;93.45;97034.25;4849380;29;20036;-80
2021/05/15 03:38:40;;;;;;;17.58;5.07;;;;;;;10.68;93.60;97022.34;4864506;29;20025;-79
2021/05/15 03:41:06;;;;;;;8.82;4.57;;;;;;;10.83;93.09;97032.81;4856624;29;20025;-81
2021/05/15 03:43:31;;;;;;;20.33;4.28;;;;;;;10.89;93.01;97037.75;4856595;29;20036;-81
2021/05/15 03:45:57;;;;;;;12.05;3.63;;;;;;;11.03;92.17;97042.13;4859870;29;20032;-79
2021/05/15 03:48:23;;;;;;;8.95;3.50;;;;;;;11.13;91.44;97045.00;4866653;29;20039;-79
2021/05/15 03:50:50;;;;;;;8.40;3.95;;;;;;;11.27;91.31;97042.16;4880168;29;20036;-79
2021/05/15 03:53:15;;;;;;;11.35;3.40;;;;;;;11.36;91.04;97033.44;4872881;29;20528;-78
2021/05/15 03:55:41;;;;;;;5.18;3.22;;;;;;;11.52;90.96;97043.91;4879597;29;20041;-78
2021/05/15 03:58:07;;;;;;;8.68;3.20;;;;;;;11.60;90.22;97041.50;4867162;29;20036;-80
2021/05/15 04:00:33;;;;;;;8.80;3.28;;;;;;;11.61;90.62;97051.25;4899630;29;20115;-79
2021/05/15 04:02:58;;;;;;;10.85;3.00;;;;;;;11.66;90.15;97052.63;4863696;29;20417;-79
2021/05/15 04:05:24;;;;;;;5.20;2.75;;;;;;;11.82;89.56;97044.31;4848742;29;20100;-80
2021/05/15 04:07:49;;;;;;;4.85;2.80;;;;;;;11.95;88.51;97050.47;4881360;29;20047;-80
2021/05/15 04:10:15;;;;;;;5.45;3.38;;;;;;;11.89;87.51;97046.44;4866473;29;20032;-80
2021/05/15 04:12:48;;;;;;;6.03;3.47;;;;;;;11.95;86.74;97051.34;4865216;29;20028;-80
2021/05/15 04:15:25;;;;;;;8.45;3.75;;;;;;;12.03;85.54;97048.06;4860513;29;20112;-80
2021/05/15 04:17:51;;;;;;;5.65;3.22;;;;;;;12.11;84.53;97034.94;4883525;29;20051;-80
2021/05/15 04:20:16;;;;;;;7.32;3.20;;;;;;;12.20;83.04;97036.94;4882685;29;20037;-80
2021/05/15 04:22:42;;;;;;;10.88;3.88;;;;;;;12.47;82.03;97033.94;4874264;29;20029;-80
2021/05/15 04:25:08;;;;;;;5.95;2.70;;;;;;;12.73;78.76;97040.81;4881818;29;20032;-81
2021/05/15 04:27:33;;;;;;;15.40;3.08;;;;;;;12.94;77.99;97036.44;4867971;29;20100;-80
2021/05/15 04:29:59;;;;;;;5.45;2.67;;;;;;;13.31;75.79;97037.06;4847542;29;20088;-81
2021/05/15 04:32:24;;;;;;;6.25;2.97;;;;;;;13.87;73.66;97032.34;4863734;29;20040;-80
2021/05/15 04:34:50;;;;;;;7.68;3.20;;;;;;;14.38;71.15;97032.53;4881492;29;20632;-80
2021/05/15 04:37:15;;;;;;;6.97;2.80;;;;;;;14.50;70.46;97036.00;4881566;29;20025;-82
2021/05/15 04:39:41;;;;;;;12.70;3.47;;;;;;;14.59;69.99;97036.06;4858219;29;20028;-79
2021/05/15 04:42:07;;;;;;;8.35;3.38;;;;;;;14.66;69.42;97031.03;4855903;29;20073;-80
2021/05/15 04:44:32;;;;;;;7.10;3.55;;;;;;;14.81;69.15;97023.44;4879651;29;20036;-80
2021/05/15 04:46:58;;;;;;;8.77;3.47;;;;;;;15.08;67.79;97034.47;4850162;29;20040;-80
2021/05/15 04:49:23;;;;;;;10.23;2.90;;;;;;;15.16;67.98;97035.50;4885738;29;20045;-80
2021/05/15 04:51:49;;;;;;;10.48;3.42;;;;;;;15.13;67.80;97033.09;4862623;29;20037;-80
2021/05/15 04:54:15;;;;;;;7.40;2.83;;;;;;;15.34;66.25;97034.88;4859842;29;20056;-80
2021/05/15 04:56:40;;;;;;;16.98;3.63;;;;;;;15.31;66.12;97030.63;4874102;29;20121;-80
2021/05/15 04:59:06;;;;;;;11.82;3.78;;;;;;;15.45;66.52;97035.63;4877863;29;20029;-81
2021/05/15 05:01:32;;;;;;;9.27;4.28;;;;;;;15.71;65.64;97027.91;4864295;29;20043;-81
2021/05/15 05:03:58;;;;;;;7.63;4.10;;;;;;;15.87;64.48;97019.28;4857424;29;20040;-80
2021/05/15 05:06:24;;;;;;;8.52;4.78;;;;;;;16.09;65.16;97027.09;4875575;29;20029;-79
2021/05/15 05:08:50;;;;;;;18.83;5.43;;;;;;;16.20;66.53;97026.97;4877926;29;20059;-79
2021/05/15 05:11:15;;;;;;;13.73;5.30;;;;;;;16.50;65.31;97020.53;4880786;29;20032;-79
2021/05/15 05:13:41;;;;;;;12.15;4.88;;;;;;;16.64;63.77;97026.34;4883238;29;20075;-79
2021/05/15 05:16:07;;;;;;;15.05;5.00;;;;;;;17.02;62.47;97020.00;4865136;29;20079;-80
2021/05/15 05:18:32;;;;;;;10.45;4.75;;;;;;;17.52;60.13;97017.78;4867308;29;20033;-80
2021/05/15 05:20:58;;;;;;;10.60;4.78;;;;;;;18.26;57.86;97007.63;4863622;29;20036;-79
2021/05/15 05:23:24;;;;;;;8.77;4.53;;;;;;;18.42;55.27;97004.19;4868849;29;20040;-79
2021/05/15 05:25:50;;;;;;;6.82;3.58;;;;;;;18.42;53.76;96996.94;4862290;29;20124;-80
2021/05/15 05:28:20;;;;;;;10.93;3.95;;;;;;;18.62;52.92;96986.78;4881298;29;20024;-81
2021/05/15 05:30:46;;;;;;;7.90;3.30;;;;;;;19.77;50.39;96996.22;4858552;29;20028;-80
2021/05/15 05:33:12;;;;;;;9.27;2.70;;;;;;;20.64;46.97;96995.63;4858197;29;20035;-80
2021/05/15 05:35:38;;;;;;;11.07;3.15;;;;;;;21.57;44.80;96994.09;4852057;29;20057;-80
2021/05/15 05:38:04;;;;;;;9.95;3.30;;;;;;;21.91;44.24;96986.47;4878951;29;20036;-79
2021/05/15 05:40:30;;;;;;;11.90;4.82;;;;;;;21.93;44.87;96983.56;4853411;29;20025;-80
2021/05/15 05:42:55;;;;;;;9.95;4.35;;;;;;;22.97;43.65;96979.19;4878485;29;20437;-80
2021/05/15 05:45:21;;;;;;;7.25;4.03;;;;;;;24.50;40.73;96978.22;4864811;29;20043;-81
2021/05/15 05:47:47;;;;;;;11.52;3.85;;;;;;;25.90;38.01;96996.38;4865391;29;20062;-80
2021/05/15 05:50:12;;;;;;;25.05;4.30;;;;;;;25.99;36.79;96981.44;4879043;29;20028;-80
2021/05/15 05:52:39;;;;;;;10.38;3.55;;;;;;;25.16;37.57;96988.72;4883355;29;20111;-80
2021/05/15 05:55:06;;;;;;;6.88;3.03;;;;;;;25.91;36.71;96985.19;4884121;29;20048;-80
2021/05/15 05:57:32;;;;;;;10.32;3.47;;;;;;;27.48;34.35;96981.00;4883937;29;20400;-80
2021/05/15 05:59:57;;;;;;;5.75;2.75;;;;;;;27.33;32.78;96965.56;4869326;29;20024;-80
2021/05/15 06:02:23;;;;;;;4.78;2.42;;;;;;;27.58;32.15;96979.50;4876827;29;20099;-81
2021/05/15 06:04:48;;;;;;;3.78;1.90;;;;;;;27.64;30.94;96975.03;4867814;29;20032;-81
2021/05/15 06:07:14;;;;;;;4.78;2.30;;;;;;;29.40;29.26;96980.59;4876405;29;20043;-80
2021/05/15 06:09:40;;;;;;;6.30;2.40;;;;;;;30.46;27.48;96979.16;4884175;29;20036;-81
2021/05/15 06:12:06;;;;;;;3.55;2.00;;;;;;;30.26;27.30;96978.56;4882599;29;20036;-80
2021/05/15 06:14:33;;;;;;;6.57;2.50;;;;;;;30.82;26.79;96974.59;4862336;29;20028;-80
2021/05/15 06:16:59;;;;;;;4.95;1.90;;;;;;;30.74;26.48;96963.84;4867516;29;20063;-80
2021/05/15 06:19:24;;;;;;;3.45;1.90;;;;;;;30.81;26.01;96967.38;4860789;29;20517;-81
2021/05/15 06:21:50;;;;;;;7.07;2.10;;;;;;;31.17;25.93;96973.59;4876261;29;20029;-80
2021/05/15 06:24:16;;;;;;;6.95;2.10;;;;;;;31.86;25.81;96977.47;4874840;29;20024;-80
2021/05/15 06:26:42;;;;;;;4.45;1.95;;;;;;;31.24;27.15;96976.25;4878259;29;20108;-81
2021/05/15 06:29:07;;;;;;;10.38;2.28;;;;;;;32.18;25.66;96969.59;4848843;29;20382;-80
2021/05/15 06:31:33;;;;;;;6.97;2.83;;;;;;;32.66;24.74;96978.34;4865325;29;20047;-80
2021/05/15 06:33:59;;;;;;;7.40;2.03;;;;;;;32.46;25.49;96969.59;4880248;29;20401;-79
2021/05/15 06:36:24;;;;;;;6.93;2.00;;;;;;;32.52;24.80;96965.00;4880815;29;20033;-80
2021/05/15 06:38:51;;;;;;;8.23;1.90;;;;;;;32.30;25.58;96970.41;4871327;29;20032;-81
2021/05/15 06:41:16;;;;;;;6.03;1.92;;;;;;;32.87;24.77;96978.72;4868055;29;20091;-80
2021/05/15 06:43:42;;;;;;;5.53;2.25;;;;;;;33.07;23.75;96971.59;4859994;29;20111;-80
2021/05/15 06:46:07;;;;;;;12.25;2.45;;;;;;;33.49;23.89;96966.50;4866616;29;20107;-80
2021/05/15 06:48:33;;;;;;;7.68;2.83;;;;;;;34.22;22.76;96966.19;4864836;29;20564;-81
2021/05/15 06:50:58;;;;;;;8.18;1.90;;;;;;;33.74;23.65;96972.47;4849315;29;20041;-81
2021/05/15 06:53:24;;;;;;;2.28;1.63;;;;;;;33.90;23.21;96962.41;4883141;29;20394;-80
2021/05/15 06:55:49;;;;;;;4.88;1.63;;;;;;;33.56;23.72;96964.38;4860077;29;20424;-80
2021/05/15 06:58:15;;;;;;;51.15;5.15;;;;;;;33.83;24.11;96966.47;4865315;29;20073;-79
2021/05/15 07:00:41;;;;;;;3.97;1.95;;;;;;;33.76;22.88;96956.41;4848019;29;20069;-78
2021/05/15 07:03:07;;;;;;;4.05;2.00;;;;;;;33.83;23.22;96967.31;4863753;29;20485;-78
2021/05/15 07:05:33;;;;;;;3.60;2.05;;;;;;;33.48;24.06;96964.81;4875728;29;20038;-80
2021/05/15 07:08:00;;;;;;;7.13;2.05;;;;;;;33.82;23.16;96948.13;4866904;29;20036;-80
2021/05/15 07:10:25;;;;;;;6.47;2.03;;;;;;;34.73;22.31;96956.53;4856241;29;20064;-80
2021/05/15 07:12:51;;;;;;;9.50;3.63;;;;;;;34.23;22.48;96951.22;4848137;29;20052;-80
2021/05/15 07:15:17;;;;;;;5.20;1.85;;;;;;;34.06;23.29;96949.56;4863317;29;20496;-79
2021/05/15 07:17:42;;;;;;;7.38;2.63;;;;;;;34.02;22.81;96942.88;4880560;29;20029;-79
2021/05/15 07:20:08;;;;;;;5.20;1.70;;;;;;;35.14;21.30;96940.25;4863383;29;20116;-80
2021/05/15 07:22:34;;;;;;;4.80;1.90;;;;;;;34.78;21.16;96931.56;4863463;29;20025;-80
2021/05/15 07:25:00;;;;;;;4.32;1.40;;;;;;;34.31;20.96;96936.03;4848645;29;20041;-81
2021/05/15 07:27:28;;;;;;;5.75;2.30;;;;;;;34.25;21.88;96929.56;4863491;29;20032;-80
2021/05/15 07:29:54;;;;;;;5.95;1.42;;;;;;;33.43;22.73;96928.69;4864192;29;20053;-80
2021/05/15 07:32:21;;;;;;;4.85;1.95;;;;;;;33.77;22.19;96938.66;4864903;29;20032;-78
2021/05/15 07:34:47;;;;;;;4.05;1.40;;;;;;;34.29;21.53;96936.31;4882552;29;20029;-79
2021/05/15 07:37:16;;;;;;;4.90;1.88;;;;;;;33.58;22.31;96934.47;4858921;29;20032;-78
2021/05/15 07:39:42;;;;;;;7.60;1.95;;;;;;;34.13;22.92;96933.59;4877710;29;20108;-80
2021/05/15 07:42:09;;;;;;;5.45;1.63;;;;;;;35.49;21.50;96937.75;4870547;29;20569;-79
2021/05/15 07:44:34;;;;;;;5.82;2.17;;;;;;;35.83;21.36;96929.94;4862917;29;20032;-80
2021/05/15 07:47:00;;;;;;;7.03;2.42;;;;;;;35.78;21.45;96930.72;4869837;29;20040;-80
2021/05/15 07:49:29;;;;;;;2.15;1.25;;;;;;;36.20;19.91;96921.50;4849031;29;20033;-83
2021/05/15 07:51:55;;;;;;;7.47;1.48;;;;;;;36.08;20.48;96916.16;4847832;29;20044;-80
2021/05/15 07:54:21;;;;;;;7.68;1.85;;;;;;;35.41;21.75;96929.88;4864867;29;20057;-79
2021/05/15 07:56:48;;;;;;;6.43;2.10;;;;;;;35.02;21.19;96925.66;4858564;29;20040;-81
2021/05/15 07:59:13;;;;;;;4.40;1.45;;;;;;;33.69;22.65;96933.53;4874015;29;20642;-79
2021/05/15 08:01:39;;;;;;;9.98;1.45;;;;;;;33.12;23.68;96935.69;4863278;29;20029;-79
2021/05/15 08:04:05;;;;;;;5.55;1.50;;;;;;;32.94;23.24;96929.53;4862580;29;20103;-80
2021/05/15 08:06:30;;;;;;;6.38;1.48;;;;;;;34.97;22.75;96936.75;4856063;29;20041;-79
2021/05/15 08:08:56;;;;;;;7.60;1.30;;;;;;;35.23;22.54;96919.19;4862806;29;20024;-79
2021/05/15 08:11:21;;;;;;;14.95;1.75;;;;;;;34.57;22.92;96918.53;4856203;29;20037;-79
2021/05/15 08:13:47;;;;;;;3.22;1.10;;;;;;;35.35;21.25;96919.81;4854017;29;20036;-80
2021/05/15 08:16:14;;;;;;;7.35;2.10;;;;;;;35.46;21.74;96913.25;4869655;29;20032;-80
2021/05/15 08:18:40;;;;;;;2.05;1.20;;;;;;;35.98;21.85;96909.66;4870657;29;20025;-80
2021/05/15 08:21:07;;;;;;;9.65;7.22;;;;;;;36.49;20.67;96914.31;4854096;29;20186;-80
2021/05/15 08:23:35;;;;;;;5.20;1.65;;;;;;;36.92;21.13;96908.28;4864968;29;20409;-80
2021/05/15 08:26:05;;;;;;;13.52;6.18;;;;;;;37.14;19.62;96898.84;4852148;29;20044;-80
2021/05/15 08:28:31;;;;;;;3.00;1.20;;;;;;;36.14;19.93;96891.94;4863781;29;20063;-80
2021/05/15 08:30:57;;;;;;;3.40;1.23;;;;;;;36.07;21.62;96888.56;4864965;29;20476;-81
2021/05/15 08:33:23;;;;;;;7.50;1.33;;;;;;;35.44;22.32;96893.19;4864415;29;20040;-80
2021/05/15 08:35:54;;;;;;;2.88;1.52;;;;;;;35.50;21.03;96883.75;5089060;27;20735;-81
2021/05/15 08:38:20;;;;;;;1.92;1.17;;;;;;;36.63;19.52;96881.22;5071066;28;20044;-80
2021/05/15 08:40:46;;;;;;;6.80;1.30;;;;;;;37.19;20.54;96885.75;5091891;28;20023;-81
2021/05/15 08:43:12;;;;;;;12.50;1.83;;;;;;;38.15;19.39;96877.13;5107600;28;20028;-82
2021/05/15 08:45:38;;;;;;;3.90;1.10;;;;;;;37.03;19.04;96867.34;5088569;28;20020;-82
2021/05/15 08:48:05;;;;;;;1.83;1.02;;;;;;;37.95;18.58;96866.91;5071095;28;20032;-82
2021/05/15 08:50:31;;;;;;;8.18;1.90;;;;;;;38.58;17.86;96858.75;5070911;28;20032;-82
2021/05/15 08:52:59;;;;;;;9.77;1.50;;;;;;;38.82;17.57;96854.16;5071166;28;20380;-82
2021/05/15 08:55:30;;;;;;;2.15;1.10;;;;;;;39.26;16.92;96842.84;5087940;28;20030;-82
2021/05/15 08:57:57;;;;;;;4.57;2.47;;;;;;;38.80;16.73;96831.22;5094475;28;20028;-82
2021/05/15 09:00:42;;;;;;;4.18;1.20;;;;;;;38.92;17.98;96837.25;5104586;28;20061;-81
2021/05/15 09:03:10;;;;;;;4.93;1.20;;;;;;;40.01;16.14;96840.34;5090939;28;20031;-82
2021/05/15 09:05:38;;;;;;;7.22;1.23;;;;;;;38.40;16.71;96817.50;5107833;28;20444;-83
2021/05/15 09:08:07;;;;;;;1.92;1.05;;;;;;;37.02;17.88;96817.38;5107853;28;20031;-83
2021/05/15 09:10:33;;;;;;;2.42;1.05;;;;;;;35.30;19.37;96817.69;5088928;28;20028;-81
2021/05/15 09:13:23;;;;;;;8.93;1.77;;;;;;;34.22;21.02;96819.00;5076868;28;20028;-82
2021/05/15 09:15:51;;;;;;;4.88;1.48;;;;;;;32.34;22.80;96829.50;5059136;28;20514;-82
2021/05/15 09:18:22;;;;;;;3.47;2.10;;;;;;;32.90;24.57;96831.31;5084290;28;20633;-80
2021/05/15 09:20:49;;;;;;;3.42;1.13;;;;;;;33.14;22.91;96836.44;5079071;28;20092;-81
2021/05/15 09:23:16;;;;;;;8.57;3.40;;;;;;;33.99;21.92;96837.88;5097774;28;20392;-83
2021/05/15 09:25:43;;;;;;;7.72;2.15;;;;;;;33.40;22.73;96837.66;5083671;28;20023;-82
2021/05/15 09:28:08;;;;;;;2.20;1.30;;;;;;;32.39;24.72;96836.00;5073074;28;20027;-81
2021/05/15 09:30:34;;;;;;;2.97;1.40;;;;;;;32.32;23.52;96838.09;5087290;28;20024;-81
2021/05/15 09:33:13;;;;;;;8.15;3.60;;;;;;;31.64;24.90;96849.16;5087883;28;20063;-82
2021/05/15 09:35:39;;;;;;;12.43;2.45;;;;;;;30.46;26.39;96838.34;5085081;28;20054;-81
2021/05/15 09:38:05;;;;;;;6.00;1.50;;;;;;;29.94;26.89;96836.34;5083110;28;20457;-80
2021/05/15 09:40:31;;;;;;;7.95;2.35;;;;;;;29.80;28.85;96843.09;5083293;28;20114;-80
2021/05/15 09:42:58;;;;;;;2.25;1.10;;;;;;;29.73;26.81;96845.94;5096802;28;20031;-81
2021/05/15 09:45:30;;;;;;;3.97;1.30;;;;;;;29.87;26.88;96838.38;5101075;28;20019;-81
2021/05/15 09:47:59;;;;;;;5.57;1.35;;;;;;;30.02;27.03;96831.34;5090283;28;20088;-81
2021/05/15 09:50:30;;;;;;;6.38;1.80;;;;;;;30.83;27.83;96832.59;5073093;28;20059;-81
2021/05/15 09:53:13;;;;;;;3.53;1.63;;;;;;;31.25;26.21;96825.06;5086715;28;20484;-82
2021/05/15 09:55:41;;;;;;;2.75;1.30;;;;;;;30.75;25.89;96825.53;5079019;28;20404;-80
2021/05/15 09:58:08;;;;;;;3.67;1.30;;;;;;;30.37;27.19;96825.91;5060183;28;20039;-83
2021/05/15 10:00:42;;;;;;;2.90;1.17;;;;;;;30.07;28.28;96819.59;5078149;28;20553;-82
2021/05/15 10:03:18;;;;;;;4.55;1.60;;;;;;;29.29;28.47;96811.28;5072985;28;20426;-82
2021/05/15 10:05:43;;;;;;;8.25;1.52;;;;;;;29.11;30.03;96810.44;5072225;28;20173;-81
2021/05/15 10:08:09;;;;;;;3.35;1.40;;;;;;;28.90;30.14;96803.47;5079367;28;20556;-81
2021/05/15 10:10:34;;;;;;;4.78;2.00;;;;;;;28.61;29.94;96801.41;5078543;28;20027;-82
2021/05/15 10:13:00;;;;;;;5.60;2.20;;;;;;;28.37;31.11;96803.09;5090443;28;20028;-81
2021/05/15 10:15:26;;;;;;;5.53;1.60;;;;;;;28.13;32.14;96801.16;5058379;28;20075;-82
2021/05/15 10:17:52;;;;;;;4.47;1.70;;;;;;;27.87;31.53;96793.94;5061598;28;20036;-82
2021/05/15 10:20:18;;;;;;;3.58;1.80;;;;;;;27.90;33.13;96807.25;5053717;28;20058;-82
2021/05/15 10:22:44;;;;;;;4.82;2.08;;;;;;;27.92;31.89;96794.09;5053147;28;20033;-82
2021/05/15 10:25:15;;;;;;;9.82;2.20;;;;;;;27.51;33.83;96782.72;5069806;28;20029;-81
2021/05/15 10:27:41;;;;;;;3.45;1.70;;;;;;;27.33;33.73;96786.16;5052220;28;20024;-80
2021/05/15 10:30:30;;;;;;;3.17;1.02;;;;;;;27.03;34.28;96793.25;5069605;28;20039;-82
2021/05/15 10:32:57;;;;;;;4.18;1.50;;;;;;;26.89;34.99;96784.22;5061794;28;20193;-82
2021/05/15 10:35:44;;;;;;;7.97;3.20;;;;;;;26.84;36.89;96773.88;5084246;28;20040;-83
2021/05/15 10:38:15;;;;;;;9.48;3.60;;;;;;;26.83;36.21;96782.31;5089985;28;20031;-82
2021/05/15 10:40:51;;;;;;;9.70;3.42;;;;;;;26.78;35.44;96776.63;5081442;28;20555;-81
2021/05/15 10:43:33;;;;;;;9.43;4.22;;;;;;;26.44;36.84;96774.16;5089531;28;20066;-82
2021/05/15 10:45:59;;;;;;;13.57;4.90;;;;;;;26.16;37.32;96774.38;5078816;28;20028;-81
2021/05/15 10:48:27;;;;;;;7.07;3.50;;;;;;;25.97;37.59;96775.19;5058098;28;20047;-82
2021/05/15 10:50:58;;;;;;;8.52;3.33;;;;;;;25.98;37.88;96771.38;5072622;28;20032;-82
2021/05/15 10:53:28;;;;;;;15.90;4.45;;;;;;;25.85;38.46;96766.75;5067889;28;20511;-82
2021/05/15 10:56:15;;;;;;;31.75;5.30;;;;;;;26.18;37.34;96775.84;5079094;28;20493;-81
2021/05/15 10:58:44;;;;;;;10.35;4.10;;;;;;;26.68;37.15;96773.47;5064356;28;20442;-81
2021/05/15 11:01:28;;;;;;;17.23;3.65;;;;;;;26.92;36.02;96770.03;5072814;28;20483;-81
2021/05/15 11:03:54;;;;;;;16.42;3.40;;;;;;;27.00;35.77;96772.56;5063485;28;20032;-81
2021/05/15 11:06:22;;;;;;;18.65;5.78;;;;;;;26.39;35.95;96772.06;5069930;28;20035;-81
2021/05/15 11:09:03;;;;;;;7.60;3.55;;;;;;;25.97;36.10;96767.81;5069275;28;20047;-82
2021/05/15 11:11:36;;;;;;;10.67;3.40;;;;;;;25.90;37.63;96768.88;5053258;28;20036;-81
2021/05/15 11:14:02;;;;;;;5.28;2.70;;;;;;;26.01;37.41;96762.75;5070542;28;20495;-81
2021/05/15 11:16:32;;;;;;;8.43;3.20;;;;;;;26.07;36.93;96765.50;5067742;28;20194;-81
2021/05/15 11:19:09;;;;;;;5.68;2.13;;;;;;;25.86;37.81;96761.06;5060906;28;20036;-81
2021/05/15 11:21:38;;;;;;;6.88;1.73;;;;;;;25.72;37.54;96762.09;5052582;28;20036;-83
2021/05/15 11:24:05;;;;;;;4.78;1.40;;;;;;;25.51;37.56;96755.94;5069150;28;20036;-82
2021/05/15 11:26:49;;;;;;;7.32;1.60;;;;;;;25.23;39.95;96756.88;5065476;28;20032;-82
2021/05/15 11:29:15;;;;;;;7.68;2.00;;;;;;;25.03;39.88;96742.28;5088986;28;20024;-81
2021/05/15 11:31:41;;;;;;;9.10;1.90;;;;;;;24.36;41.76;96747.59;5057320;28;20024;-82